createdAt,value
2024-01-24T00:02:37.745Z,2.89
2024-01-24T00:12:39.651Z,2.83
2024-01-24T00:22:41.481Z,2.92
2024-01-24T00:32:43.270Z,3.02
2024-01-24T00:42:45.611Z,2.96
2024-01-24T00:52:53.082Z,3.17
2024-01-24T01:02:54.911Z,3.15
2024-01-24T01:12:56.808Z,3.23
2024-01-24T01:22:58.674Z,3.24
2024-01-24T01:33:00.546Z,3.39
2024-01-24T01:43:02.397Z,3.46
2024-01-24T01:53:04.832Z,3.48
2024-01-24T02:03:07.847Z,3.47
2024-01-24T02:13:09.760Z,3.26
2024-01-24T02:23:13.509Z,3.43
2024-01-24T02:33:15.490Z,3.49
2024-01-24T02:43:17.296Z,3.45
2024-01-24T02:53:19.345Z,3.53
2024-01-24T03:03:21.186Z,3.50
2024-01-24T03:13:23.172Z,3.52
2024-01-24T03:23:25.869Z,3.64
2024-01-24T03:33:27.846Z,3.57
2024-01-24T03:43:29.704Z,3.50
2024-01-24T03:53:33.092Z,3.34
2024-01-24T04:03:34.960Z,3.52
2024-01-24T04:13:36.815Z,3.58
2024-01-24T04:23:38.759Z,3.57
2024-01-24T04:33:40.778Z,3.70
2024-01-24T04:43:42.830Z,3.65
2024-01-24T04:53:44.744Z,3.74
2024-01-24T05:03:46.524Z,3.71
2024-01-24T05:13:49.404Z,3.57
2024-01-24T05:23:52.747Z,3.56
2024-01-24T05:33:56.876Z,3.95
2024-01-24T05:43:58.520Z,3.96
2024-01-24T05:54:00.158Z,4.17
2024-01-24T06:04:02.290Z,4.19
2024-01-24T06:14:04.334Z,4.25
2024-01-24T06:24:08.919Z,4.21
2024-01-24T06:34:10.706Z,4.28
2024-01-24T06:44:12.534Z,4.28
2024-01-24T06:54:14.313Z,4.19
2024-01-24T07:04:16.029Z,4.20
2024-01-24T07:14:17.941Z,4.26
2024-01-24T07:24:19.800Z,4.33
2024-01-24T07:34:21.742Z,4.29
2024-01-24T07:44:23.609Z,4.29
2024-01-24T07:54:25.555Z,4.38
2024-01-24T08:04:27.750Z,4.64
2024-01-24T08:14:29.719Z,4.84
2024-01-24T08:24:31.595Z,4.89
2024-01-24T08:34:35.524Z,5.18
2024-01-24T08:44:37.620Z,5.69
2024-01-24T08:54:39.575Z,5.82
2024-01-24T09:04:41.770Z,6.32
2024-01-24T09:14:48.697Z,6.81
2024-01-24T09:24:51.419Z,7.35
2024-01-24T09:34:53.863Z,7.74
2024-01-24T09:44:59.237Z,7.93
2024-01-24T09:55:06.123Z,8.13
2024-01-24T10:05:14.149Z,8.36
2024-01-24T10:15:15.962Z,8.89
2024-01-24T10:25:17.924Z,9.30
2024-01-24T10:35:20.034Z,9.57
2024-01-24T10:45:27.227Z,9.83
2024-01-24T10:55:32.563Z,10.29
2024-01-24T11:05:34.699Z,10.77
2024-01-24T11:15:36.839Z,11.29
2024-01-24T11:25:38.920Z,11.10
2024-01-24T11:35:46.513Z,10.39
2024-01-24T11:45:48.292Z,9.72
2024-01-24T11:56:05.858Z,9.63
2024-01-24T12:06:08.024Z,9.79
2024-01-24T12:16:10.319Z,10.22
2024-01-24T12:26:19.109Z,11.24
2024-01-24T12:36:20.900Z,11.98
2024-01-24T12:46:22.805Z,12.62
2024-01-24T12:56:24.596Z,13.16
2024-01-24T13:06:28.461Z,13.44
2024-01-24T13:16:32.360Z,13.96
2024-01-24T13:26:34.617Z,14.34
2024-01-24T13:36:36.670Z,14.44
2024-01-24T13:46:38.774Z,14.50
2024-01-24T13:56:40.681Z,14.52
2024-01-24T14:06:43.594Z,14.37
2024-01-24T14:16:45.521Z,14.41
2024-01-24T14:26:49.063Z,14.47
2024-01-24T14:36:55.698Z,13.85
2024-01-24T14:47:05.767Z,13.70
2024-01-24T14:57:07.716Z,13.45
2024-01-24T15:07:09.553Z,13.38
2024-01-24T15:17:11.325Z,12.94
2024-01-24T15:27:13.044Z,12.67
2024-01-24T15:37:16.047Z,12.52
2024-01-24T15:47:17.823Z,12.26
2024-01-24T15:57:19.768Z,11.66
2024-01-24T16:07:21.924Z,11.80
2024-01-24T16:17:23.727Z,11.75
2024-01-24T16:27:25.516Z,11.96
2024-01-24T16:37:27.601Z,11.92
2024-01-24T16:47:29.771Z,11.81
2024-01-24T16:57:31.573Z,11.71
2024-01-24T17:07:33.592Z,11.77
2024-01-24T17:17:35.225Z,11.79
2024-01-24T17:27:37.494Z,11.89
2024-01-24T17:37:39.660Z,11.82
2024-01-24T17:47:43.211Z,11.39
2024-01-24T17:57:45.484Z,11.24
2024-01-24T18:07:47.691Z,11.07
2024-01-24T18:17:49.374Z,10.86
2024-01-24T18:27:51.956Z,11.02
2024-01-24T18:37:53.806Z,11.28
2024-01-24T18:47:55.896Z,11.64
2024-01-24T18:57:58.048Z,11.79
2024-01-24T19:08:00.051Z,11.81
2024-01-24T19:18:10.383Z,11.57
2024-01-24T19:28:15.644Z,11.33
2024-01-24T19:38:17.880Z,11.27
2024-01-24T19:48:19.882Z,11.19
2024-01-24T19:58:22.095Z,11.15
2024-01-24T20:08:23.836Z,11.40
2024-01-24T20:18:25.695Z,11.33
2024-01-24T20:28:27.616Z,11.21
2024-01-24T20:38:29.437Z,11.27
2024-01-24T20:48:31.152Z,11.28
2024-01-24T20:58:34.432Z,11.29
2024-01-24T21:08:36.678Z,11.00
2024-01-24T21:18:39.821Z,11.22
2024-01-24T21:28:41.747Z,11.29
2024-01-24T21:38:43.508Z,11.21
2024-01-24T21:48:45.545Z,11.11
2024-01-24T21:58:47.636Z,11.25
2024-01-24T22:08:49.527Z,11.19
2024-01-24T22:18:51.387Z,11.07
2024-01-24T22:28:53.063Z,11.06
2024-01-24T22:38:54.979Z,11.08
2024-01-24T22:48:58.001Z,11.04
2024-01-24T22:58:59.874Z,10.93
2024-01-24T23:09:01.603Z,10.85
2024-01-24T23:19:03.573Z,10.85
2024-01-24T23:29:05.454Z,11.01
2024-01-24T23:39:08.213Z,10.94
2024-01-24T23:49:10.102Z,10.85
2024-01-24T23:59:11.931Z,10.87
